sensor_id;sensor_type;location;lat;lon;timestamp;P1;durP1;ratioP1;P2;durP2;ratioP2
56712;SDS011;42589;45.536;9.032;2024-03-08T00:02:22;38.50;;;28.85;;
56712;SDS011;42589;45.536;9.032;2024-03-08T00:05:23;36.67;;;28.80;;
56712;SDS011;42589;45.536;9.032;2024-03-08T00:08:23;39.05;;;29.85;;
56712;SDS011;42589;45.536;9.032;2024-03-08T00:11:24;40.17;;;29.73;;
56712;SDS011;42589;45.536;9.032;2024-03-08T00:14:27;39.10;;;29.80;;
56712;SDS011;42589;45.536;9.032;2024-03-08T00:17:27;39.95;;;30.90;;
56712;SDS011;42589;45.536;9.032;2024-03-08T00:20:28;39.40;;;30.35;;
56712;SDS011;42589;45.536;9.032;2024-03-08T00:23:28;38.83;;;30.23;;
56712;SDS011;42589;45.536;9.032;2024-03-08T00:26:29;39.67;;;30.13;;
56712;SDS011;42589;45.536;9.032;2024-03-08T00:29:30;43.25;;;31.33;;
56712;SDS011;42589;45.536;9.032;2024-03-08T00:32:30;39.03;;;29.92;;
56712;SDS011;42589;45.536;9.032;2024-03-08T00:35:31;41.33;;;32.40;;
56712;SDS011;42589;45.536;9.032;2024-03-08T00:38:33;41.47;;;31.20;;
56712;SDS011;42589;45.536;9.032;2024-03-08T00:41:34;38.33;;;29.77;;
56712;SDS011;42589;45.536;9.032;2024-03-08T00:44:34;41.53;;;31.20;;
56712;SDS011;42589;45.536;9.032;2024-03-08T00:47:35;45.78;;;32.53;;
56712;SDS011;42589;45.536;9.032;2024-03-08T00:50:35;40.65;;;31.23;;
56712;SDS011;42589;45.536;9.032;2024-03-08T00:53:36;42.63;;;33.53;;
56712;SDS011;42589;45.536;9.032;2024-03-08T00:56:37;41.22;;;32.20;;
56712;SDS011;42589;45.536;9.032;2024-03-08T00:59:39;44.90;;;33.10;;
56712;SDS011;42589;45.536;9.032;2024-03-08T01:02:39;43.22;;;32.30;;
56712;SDS011;42589;45.536;9.032;2024-03-08T01:05:40;41.80;;;33.80;;
56712;SDS011;42589;45.536;9.032;2024-03-08T01:08:40;43.83;;;33.25;;
56712;SDS011;42589;45.536;9.032;2024-03-08T01:11:42;44.05;;;34.00;;
56712;SDS011;42589;45.536;9.032;2024-03-08T01:14:42;42.70;;;32.92;;
56712;SDS011;42589;45.536;9.032;2024-03-08T01:17:43;39.85;;;31.85;;
56712;SDS011;42589;45.536;9.032;2024-03-08T01:20:44;42.30;;;30.50;;
56712;SDS011;42589;45.536;9.032;2024-03-08T01:23:44;41.55;;;33.13;;
56712;SDS011;42589;45.536;9.032;2024-03-08T01:26:45;43.90;;;34.22;;
56712;SDS011;42589;45.536;9.032;2024-03-08T01:29:47;41.20;;;33.35;;
56712;SDS011;42589;45.536;9.032;2024-03-08T01:32:47;45.25;;;35.28;;
56712;SDS011;42589;45.536;9.032;2024-03-08T01:35:48;43.20;;;34.65;;
56712;SDS011;42589;45.536;9.032;2024-03-08T01:38:49;47.03;;;35.55;;
56712;SDS011;42589;45.536;9.032;2024-03-08T01:41:50;46.55;;;36.25;;
56712;SDS011;42589;45.536;9.032;2024-03-08T01:44:50;50.67;;;35.60;;
56712;SDS011;42589;45.536;9.032;2024-03-08T01:47:51;46.03;;;35.17;;
56712;SDS011;42589;45.536;9.032;2024-03-08T01:50:53;47.10;;;34.28;;
56712;SDS011;42589;45.536;9.032;2024-03-08T01:53:54;46.10;;;34.78;;
56712;SDS011;42589;45.536;9.032;2024-03-08T01:56:56;40.45;;;33.55;;
56712;SDS011;42589;45.536;9.032;2024-03-08T01:59:59;42.90;;;33.38;;
56712;SDS011;42589;45.536;9.032;2024-03-08T02:03:04;39.50;;;30.98;;
56712;SDS011;42589;45.536;9.032;2024-03-08T02:06:05;39.05;;;30.40;;
56712;SDS011;42589;45.536;9.032;2024-03-08T02:09:10;38.83;;;30.00;;
56712;SDS011;42589;45.536;9.032;2024-03-08T02:12:10;37.70;;;29.17;;
56712;SDS011;42589;45.536;9.032;2024-03-08T02:15:11;35.67;;;28.05;;
56712;SDS011;42589;45.536;9.032;2024-03-08T02:18:11;37.03;;;27.52;;
56712;SDS011;42589;45.536;9.032;2024-03-08T02:21:13;34.42;;;25.08;;
56712;SDS011;42589;45.536;9.032;2024-03-08T02:24:18;34.22;;;25.45;;
56712;SDS011;42589;45.536;9.032;2024-03-08T02:27:27;34.97;;;26.63;;
56712;SDS011;42589;45.536;9.032;2024-03-08T02:30:29;32.50;;;25.35;;
56712;SDS011;42589;45.536;9.032;2024-03-08T02:33:30;34.03;;;26.33;;
56712;SDS011;42589;45.536;9.032;2024-03-08T02:36:31;35.28;;;25.33;;
56712;SDS011;42589;45.536;9.032;2024-03-08T02:39:35;32.63;;;24.73;;
56712;SDS011;42589;45.536;9.032;2024-03-08T02:42:35;32.63;;;25.50;;
56712;SDS011;42589;45.536;9.032;2024-03-08T02:45:36;35.35;;;26.17;;
56712;SDS011;42589;45.536;9.032;2024-03-08T02:48:37;33.58;;;26.83;;
56712;SDS011;42589;45.536;9.032;2024-03-08T02:51:37;36.03;;;27.40;;
56712;SDS011;42589;45.536;9.032;2024-03-08T02:54:39;38.15;;;27.80;;
56712;SDS011;42589;45.536;9.032;2024-03-08T02:57:40;38.03;;;28.42;;
56712;SDS011;42589;45.536;9.032;2024-03-08T03:00:41;38.80;;;28.67;;
56712;SDS011;42589;45.536;9.032;2024-03-08T03:03:42;39.60;;;28.35;;
56712;SDS011;42589;45.536;9.032;2024-03-08T03:06:42;38.47;;;28.42;;
56712;SDS011;42589;45.536;9.032;2024-03-08T03:09:43;41.22;;;28.67;;
56712;SDS011;42589;45.536;9.032;2024-03-08T03:12:47;37.80;;;29.20;;
56712;SDS011;42589;45.536;9.032;2024-03-08T03:15:48;40.13;;;29.48;;
56712;SDS011;42589;45.536;9.032;2024-03-08T03:18:49;41.13;;;29.58;;
56712;SDS011;42589;45.536;9.032;2024-03-08T03:21:50;42.35;;;30.15;;
56712;SDS011;42589;45.536;9.032;2024-03-08T03:24:52;37.33;;;29.48;;
56712;SDS011;42589;45.536;9.032;2024-03-08T03:27:53;40.35;;;29.45;;
56712;SDS011;42589;45.536;9.032;2024-03-08T03:30:56;41.22;;;29.73;;
56712;SDS011;42589;45.536;9.032;2024-03-08T03:33:58;41.90;;;30.52;;
56712;SDS011;42589;45.536;9.032;2024-03-08T03:37:02;41.58;;;30.58;;
56712;SDS011;42589;45.536;9.032;2024-03-08T03:40:03;41.63;;;30.63;;
56712;SDS011;42589;45.536;9.032;2024-03-08T03:43:03;41.78;;;30.27;;
56712;SDS011;42589;45.536;9.032;2024-03-08T03:46:07;43.42;;;30.65;;
56712;SDS011;42589;45.536;9.032;2024-03-08T03:49:11;43.22;;;30.65;;
56712;SDS011;42589;45.536;9.032;2024-03-08T03:52:12;41.78;;;30.75;;
56712;SDS011;42589;45.536;9.032;2024-03-08T03:55:13;42.55;;;30.48;;
56712;SDS011;42589;45.536;9.032;2024-03-08T03:58:13;43.90;;;30.85;;
56712;SDS011;42589;45.536;9.032;2024-03-08T04:01:14;38.65;;;28.92;;
56712;SDS011;42589;45.536;9.032;2024-03-08T04:04:15;42.55;;;31.02;;
56712;SDS011;42589;45.536;9.032;2024-03-08T04:07:15;42.80;;;32.55;;
56712;SDS011;42589;45.536;9.032;2024-03-08T04:10:16;44.58;;;34.17;;
56712;SDS011;42589;45.536;9.032;2024-03-08T04:13:17;46.28;;;33.28;;
56712;SDS011;42589;45.536;9.032;2024-03-08T04:16:18;43.17;;;31.95;;
56712;SDS011;42589;45.536;9.032;2024-03-08T04:19:19;47.10;;;33.05;;
56712;SDS011;42589;45.536;9.032;2024-03-08T04:22:19;42.88;;;32.92;;
56712;SDS011;42589;45.536;9.032;2024-03-08T04:25:20;48.67;;;32.33;;
56712;SDS011;42589;45.536;9.032;2024-03-08T04:28:21;47.08;;;33.70;;
56712;SDS011;42589;45.536;9.032;2024-03-08T04:31:21;47.42;;;33.22;;
56712;SDS011;42589;45.536;9.032;2024-03-08T04:34:22;48.33;;;33.70;;
56712;SDS011;42589;45.536;9.032;2024-03-08T04:37:22;47.50;;;33.15;;
56712;SDS011;42589;45.536;9.032;2024-03-08T04:40:23;48.60;;;33.47;;
56712;SDS011;42589;45.536;9.032;2024-03-08T04:43:24;52.17;;;35.00;;
56712;SDS011;42589;45.536;9.032;2024-03-08T04:46:30;47.33;;;34.42;;
56712;SDS011;42589;45.536;9.032;2024-03-08T04:49:34;47.15;;;34.42;;
56712;SDS011;42589;45.536;9.032;2024-03-08T04:52:35;49.07;;;33.67;;
56712;SDS011;42589;45.536;9.032;2024-03-08T04:55:36;50.90;;;36.10;;
56712;SDS011;42589;45.536;9.032;2024-03-08T04:58:37;59.30;;;39.90;;
56712;SDS011;42589;45.536;9.032;2024-03-08T05:01:38;56.45;;;38.47;;
56712;SDS011;42589;45.536;9.032;2024-03-08T05:04:39;55.28;;;39.03;;
56712;SDS011;42589;45.536;9.032;2024-03-08T05:07:40;56.13;;;39.00;;
56712;SDS011;42589;45.536;9.032;2024-03-08T05:10:41;56.70;;;39.95;;
56712;SDS011;42589;45.536;9.032;2024-03-08T05:13:41;57.45;;;38.70;;
56712;SDS011;42589;45.536;9.032;2024-03-08T05:16:45;57.17;;;40.50;;
56712;SDS011;42589;45.536;9.032;2024-03-08T05:19:48;54.10;;;38.00;;
56712;SDS011;42589;45.536;9.032;2024-03-08T05:22:49;61.15;;;40.22;;
56712;SDS011;42589;45.536;9.032;2024-03-08T05:25:50;57.90;;;39.83;;
56712;SDS011;42589;45.536;9.032;2024-03-08T05:28:52;51.38;;;38.35;;
56712;SDS011;42589;45.536;9.032;2024-03-08T05:31:52;63.80;;;43.10;;
56712;SDS011;42589;45.536;9.032;2024-03-08T05:34:53;54.15;;;39.60;;
56712;SDS011;42589;45.536;9.032;2024-03-08T05:37:53;57.67;;;40.17;;
56712;SDS011;42589;45.536;9.032;2024-03-08T05:40:55;54.58;;;38.67;;
56712;SDS011;42589;45.536;9.032;2024-03-08T05:43:56;55.58;;;39.30;;
56712;SDS011;42589;45.536;9.032;2024-03-08T05:46:56;55.63;;;39.30;;
56712;SDS011;42589;45.536;9.032;2024-03-08T05:49:57;65.57;;;41.60;;
56712;SDS011;42589;45.536;9.032;2024-03-08T05:52:58;55.80;;;40.22;;
56712;SDS011;42589;45.536;9.032;2024-03-08T05:55:59;55.65;;;37.75;;
56712;SDS011;42589;45.536;9.032;2024-03-08T05:58:59;58.88;;;39.65;;
56712;SDS011;42589;45.536;9.032;2024-03-08T06:02:00;54.50;;;38.60;;
56712;SDS011;42589;45.536;9.032;2024-03-08T06:05:02;56.67;;;37.17;;
56712;SDS011;42589;45.536;9.032;2024-03-08T06:08:03;53.85;;;37.17;;
56712;SDS011;42589;45.536;9.032;2024-03-08T06:11:04;45.78;;;34.05;;
56712;SDS011;42589;45.536;9.032;2024-03-08T06:14:06;54.03;;;36.22;;
56712;SDS011;42589;45.536;9.032;2024-03-08T06:17:07;51.63;;;35.10;;
56712;SDS011;42589;45.536;9.032;2024-03-08T06:20:08;51.22;;;34.88;;
56712;SDS011;42589;45.536;9.032;2024-03-08T06:23:13;50.30;;;34.78;;
56712;SDS011;42589;45.536;9.032;2024-03-08T06:26:18;48.88;;;33.17;;
56712;SDS011;42589;45.536;9.032;2024-03-08T06:29:19;49.05;;;34.20;;
56712;SDS011;42589;45.536;9.032;2024-03-08T06:32:20;43.08;;;30.58;;
56712;SDS011;42589;45.536;9.032;2024-03-08T06:35:20;41.13;;;29.98;;
56712;SDS011;42589;45.536;9.032;2024-03-08T06:38:21;40.33;;;29.25;;
56712;SDS011;42589;45.536;9.032;2024-03-08T06:41:22;38.20;;;28.20;;
56712;SDS011;42589;45.536;9.032;2024-03-08T06:44:23;37.78;;;27.45;;
56712;SDS011;42589;45.536;9.032;2024-03-08T06:47:24;32.45;;;24.33;;
56712;SDS011;42589;45.536;9.032;2024-03-08T06:50:25;33.63;;;24.13;;
56712;SDS011;42589;45.536;9.032;2024-03-08T06:53:27;32.10;;;23.38;;
56712;SDS011;42589;45.536;9.032;2024-03-08T06:56:27;31.42;;;22.88;;
56712;SDS011;42589;45.536;9.032;2024-03-08T06:59:28;28.60;;;22.27;;
56712;SDS011;42589;45.536;9.032;2024-03-08T07:02:28;28.38;;;21.23;;
56712;SDS011;42589;45.536;9.032;2024-03-08T07:05:30;29.42;;;21.60;;
56712;SDS011;42589;45.536;9.032;2024-03-08T07:08:30;25.95;;;19.67;;
56712;SDS011;42589;45.536;9.032;2024-03-08T07:11:31;29.13;;;19.45;;
56712;SDS011;42589;45.536;9.032;2024-03-08T07:14:31;27.25;;;19.02;;
56712;SDS011;42589;45.536;9.032;2024-03-08T07:17:32;24.67;;;18.40;;
56712;SDS011;42589;45.536;9.032;2024-03-08T07:20:34;25.02;;;19.75;;
56712;SDS011;42589;45.536;9.032;2024-03-08T07:23:36;25.45;;;19.50;;
56712;SDS011;42589;45.536;9.032;2024-03-08T07:26:46;29.20;;;20.45;;
56712;SDS011;42589;45.536;9.032;2024-03-08T07:29:52;27.67;;;20.50;;
56712;SDS011;42589;45.536;9.032;2024-03-08T07:32:52;28.13;;;20.60;;
56712;SDS011;42589;45.536;9.032;2024-03-08T07:35:53;26.55;;;19.50;;
56712;SDS011;42589;45.536;9.032;2024-03-08T07:38:54;26.05;;;19.13;;
56712;SDS011;42589;45.536;9.032;2024-03-08T07:41:54;26.30;;;18.65;;
56712;SDS011;42589;45.536;9.032;2024-03-08T07:44:55;26.33;;;18.67;;
56712;SDS011;42589;45.536;9.032;2024-03-08T07:47:55;25.65;;;17.95;;
56712;SDS011;42589;45.536;9.032;2024-03-08T07:50:56;25.48;;;17.92;;
56712;SDS011;42589;45.536;9.032;2024-03-08T07:53:57;22.63;;;17.90;;
56712;SDS011;42589;45.536;9.032;2024-03-08T07:56:58;21.77;;;16.77;;
56712;SDS011;42589;45.536;9.032;2024-03-08T07:59:59;23.27;;;16.92;;
56712;SDS011;42589;45.536;9.032;2024-03-08T08:03:00;22.58;;;16.40;;
56712;SDS011;42589;45.536;9.032;2024-03-08T08:06:01;23.33;;;15.68;;
56712;SDS011;42589;45.536;9.032;2024-03-08T08:09:02;23.15;;;16.77;;
56712;SDS011;42589;45.536;9.032;2024-03-08T08:12:03;20.95;;;15.77;;
56712;SDS011;42589;45.536;9.032;2024-03-08T08:15:04;23.80;;;17.10;;
56712;SDS011;42589;45.536;9.032;2024-03-08T08:18:04;24.33;;;17.65;;
56712;SDS011;42589;45.536;9.032;2024-03-08T08:21:05;23.00;;;16.95;;
56712;SDS011;42589;45.536;9.032;2024-03-08T08:24:06;24.33;;;18.10;;
56712;SDS011;42589;45.536;9.032;2024-03-08T08:27:07;25.17;;;18.27;;
56712;SDS011;42589;45.536;9.032;2024-03-08T08:30:08;22.63;;;17.52;;
56712;SDS011;42589;45.536;9.032;2024-03-08T08:33:09;25.25;;;17.25;;
56712;SDS011;42589;45.536;9.032;2024-03-08T08:36:10;25.98;;;17.70;;
56712;SDS011;42589;45.536;9.032;2024-03-08T08:39:11;28.42;;;19.35;;
56712;SDS011;42589;45.536;9.032;2024-03-08T08:42:13;24.05;;;17.00;;
56712;SDS011;42589;45.536;9.032;2024-03-08T08:45:14;22.58;;;16.88;;
56712;SDS011;42589;45.536;9.032;2024-03-08T08:48:17;25.55;;;16.55;;
56712;SDS011;42589;45.536;9.032;2024-03-08T08:51:17;23.27;;;16.45;;
56712;SDS011;42589;45.536;9.032;2024-03-08T08:54:18;22.95;;;15.95;;
56712;SDS011;42589;45.536;9.032;2024-03-08T08:57:18;25.63;;;17.42;;
56712;SDS011;42589;45.536;9.032;2024-03-08T09:00:19;23.73;;;16.77;;
56712;SDS011;42589;45.536;9.032;2024-03-08T09:03:20;26.70;;;18.17;;
56712;SDS011;42589;45.536;9.032;2024-03-08T09:06:21;21.80;;;17.05;;
56712;SDS011;42589;45.536;9.032;2024-03-08T09:09:23;23.33;;;17.08;;
56712;SDS011;42589;45.536;9.032;2024-03-08T09:12:24;23.30;;;17.20;;
56712;SDS011;42589;45.536;9.032;2024-03-08T09:15:24;22.55;;;16.65;;
56712;SDS011;42589;45.536;9.032;2024-03-08T09:18:28;22.08;;;16.38;;
56712;SDS011;42589;45.536;9.032;2024-03-08T09:21:29;22.10;;;16.42;;
56712;SDS011;42589;45.536;9.032;2024-03-08T09:24:31;20.35;;;16.05;;
56712;SDS011;42589;45.536;9.032;2024-03-08T09:27:32;21.33;;;15.88;;
56712;SDS011;42589;45.536;9.032;2024-03-08T09:30:32;22.60;;;17.10;;
56712;SDS011;42589;45.536;9.032;2024-03-08T09:33:34;23.23;;;16.98;;
56712;SDS011;42589;45.536;9.032;2024-03-08T09:36:35;22.67;;;17.05;;
56712;SDS011;42589;45.536;9.032;2024-03-08T09:39:36;24.73;;;16.35;;
56712;SDS011;42589;45.536;9.032;2024-03-08T09:42:38;21.42;;;16.33;;
56712;SDS011;42589;45.536;9.032;2024-03-08T09:45:38;22.48;;;16.92;;
56712;SDS011;42589;45.536;9.032;2024-03-08T09:48:41;23.20;;;17.52;;
56712;SDS011;42589;45.536;9.032;2024-03-08T09:51:41;22.98;;;16.10;;
56712;SDS011;42589;45.536;9.032;2024-03-08T09:54:42;22.33;;;16.48;;
56712;SDS011;42589;45.536;9.032;2024-03-08T09:57:44;23.00;;;16.38;;
56712;SDS011;42589;45.536;9.032;2024-03-08T10:01:07;23.73;;;16.80;;
56712;SDS011;42589;45.536;9.032;2024-03-08T10:04:08;21.52;;;16.70;;
56712;SDS011;42589;45.536;9.032;2024-03-08T10:07:10;21.90;;;15.82;;
56712;SDS011;42589;45.536;9.032;2024-03-08T10:10:12;22.55;;;16.02;;
56712;SDS011;42589;45.536;9.032;2024-03-08T10:13:13;21.20;;;15.77;;
56712;SDS011;42589;45.536;9.032;2024-03-08T10:16:14;23.20;;;16.17;;
56712;SDS011;42589;45.536;9.032;2024-03-08T10:19:17;21.27;;;15.35;;
56712;SDS011;42589;45.536;9.032;2024-03-08T10:22:18;20.10;;;15.15;;
56712;SDS011;42589;45.536;9.032;2024-03-08T10:25:18;21.00;;;15.80;;
56712;SDS011;42589;45.536;9.032;2024-03-08T10:28:19;20.20;;;15.27;;
56712;SDS011;42589;45.536;9.032;2024-03-08T10:31:19;22.85;;;15.82;;
56712;SDS011;42589;45.536;9.032;2024-03-08T10:34:28;18.27;;;14.18;;
56712;SDS011;42589;45.536;9.032;2024-03-08T10:37:29;22.58;;;15.00;;
56712;SDS011;42589;45.536;9.032;2024-03-08T10:40:30;20.48;;;15.90;;
56712;SDS011;42589;45.536;9.032;2024-03-08T10:43:31;22.30;;;15.65;;
56712;SDS011;42589;45.536;9.032;2024-03-08T10:49:45;24.33;;;16.13;;
56712;SDS011;42589;45.536;9.032;2024-03-08T10:52:49;19.67;;;16.13;;
56712;SDS011;42589;45.536;9.032;2024-03-08T10:55:50;20.10;;;15.38;;
56712;SDS011;42589;45.536;9.032;2024-03-08T10:58:53;20.42;;;15.20;;
56712;SDS011;42589;45.536;9.032;2024-03-08T11:01:54;20.27;;;15.77;;
56712;SDS011;42589;45.536;9.032;2024-03-08T11:04:55;19.65;;;15.30;;
56712;SDS011;42589;45.536;9.032;2024-03-08T11:07:56;21.73;;;16.70;;
56712;SDS011;42589;45.536;9.032;2024-03-08T11:10:57;22.08;;;16.10;;
56712;SDS011;42589;45.536;9.032;2024-03-08T11:13:58;21.85;;;16.45;;
56712;SDS011;42589;45.536;9.032;2024-03-08T11:16:59;21.75;;;16.10;;
56712;SDS011;42589;45.536;9.032;2024-03-08T11:23:17;21.70;;;16.58;;
56712;SDS011;42589;45.536;9.032;2024-03-08T11:26:23;23.88;;;17.65;;
56712;SDS011;42589;45.536;9.032;2024-03-08T11:32:29;21.77;;;16.88;;
56712;SDS011;42589;45.536;9.032;2024-03-08T11:35:30;21.80;;;16.85;;
56712;SDS011;42589;45.536;9.032;2024-03-08T11:38:31;22.25;;;16.55;;
56712;SDS011;42589;45.536;9.032;2024-03-08T11:41:32;20.60;;;16.23;;
56712;SDS011;42589;45.536;9.032;2024-03-08T11:44:32;21.85;;;16.13;;
56712;SDS011;42589;45.536;9.032;2024-03-08T11:47:34;21.23;;;15.10;;
56712;SDS011;42589;45.536;9.032;2024-03-08T11:50:35;17.52;;;14.57;;
56712;SDS011;42589;45.536;9.032;2024-03-08T11:53:35;18.33;;;14.50;;
56712;SDS011;42589;45.536;9.032;2024-03-08T11:56:36;17.30;;;14.88;;
56712;SDS011;42589;45.536;9.032;2024-03-08T11:59:36;21.15;;;15.63;;
56712;SDS011;42589;45.536;9.032;2024-03-08T12:02:37;18.50;;;14.18;;
56712;SDS011;42589;45.536;9.032;2024-03-08T12:05:42;20.40;;;14.65;;
56712;SDS011;42589;45.536;9.032;2024-03-08T12:08:43;19.90;;;14.38;;
56712;SDS011;42589;45.536;9.032;2024-03-08T12:11:43;20.27;;;15.00;;
56712;SDS011;42589;45.536;9.032;2024-03-08T12:14:47;18.52;;;14.20;;
56712;SDS011;42589;45.536;9.032;2024-03-08T12:17:53;18.95;;;14.07;;
56712;SDS011;42589;45.536;9.032;2024-03-08T12:21:06;20.90;;;14.45;;
56712;SDS011;42589;45.536;9.032;2024-03-08T12:27:21;17.98;;;14.13;;
56712;SDS011;42589;45.536;9.032;2024-03-08T12:30:24;18.83;;;14.57;;
56712;SDS011;42589;45.536;9.032;2024-03-08T12:33:26;18.38;;;13.80;;
56712;SDS011;42589;45.536;9.032;2024-03-08T12:36:27;18.05;;;14.02;;
56712;SDS011;42589;45.536;9.032;2024-03-08T12:39:29;17.65;;;14.30;;
56712;SDS011;42589;45.536;9.032;2024-03-08T12:42:30;16.55;;;13.70;;
56712;SDS011;42589;45.536;9.032;2024-03-08T12:45:31;18.75;;;13.55;;
56712;SDS011;42589;45.536;9.032;2024-03-08T12:48:35;19.63;;;13.65;;
56712;SDS011;42589;45.536;9.032;2024-03-08T12:51:40;17.15;;;13.85;;
56712;SDS011;42589;45.536;9.032;2024-03-08T12:54:41;15.02;;;13.00;;
56712;SDS011;42589;45.536;9.032;2024-03-08T12:57:42;16.25;;;13.65;;
56712;SDS011;42589;45.536;9.032;2024-03-08T13:00:43;16.23;;;12.75;;
56712;SDS011;42589;45.536;9.032;2024-03-08T13:03:44;21.25;;;15.18;;
56712;SDS011;42589;45.536;9.032;2024-03-08T13:06:44;20.65;;;14.77;;
56712;SDS011;42589;45.536;9.032;2024-03-08T13:09:47;18.25;;;13.75;;
56712;SDS011;42589;45.536;9.032;2024-03-08T13:12:48;18.42;;;14.15;;
56712;SDS011;42589;45.536;9.032;2024-03-08T13:15:49;21.05;;;14.68;;
56712;SDS011;42589;45.536;9.032;2024-03-08T13:18:51;19.00;;;15.00;;
56712;SDS011;42589;45.536;9.032;2024-03-08T13:21:52;20.27;;;14.93;;
56712;SDS011;42589;45.536;9.032;2024-03-08T13:24:53;20.05;;;14.32;;
56712;SDS011;42589;45.536;9.032;2024-03-08T13:27:54;19.88;;;14.52;;
56712;SDS011;42589;45.536;9.032;2024-03-08T13:30:57;20.35;;;14.75;;
56712;SDS011;42589;45.536;9.032;2024-03-08T13:33:58;17.63;;;14.35;;
56712;SDS011;42589;45.536;9.032;2024-03-08T13:36:58;22.85;;;15.02;;
56712;SDS011;42589;45.536;9.032;2024-03-08T13:40:00;15.73;;;13.25;;
56712;SDS011;42589;45.536;9.032;2024-03-08T13:43:02;18.58;;;14.10;;
56712;SDS011;42589;45.536;9.032;2024-03-08T13:46:03;17.80;;;14.77;;
56712;SDS011;42589;45.536;9.032;2024-03-08T13:49:05;18.92;;;14.25;;
56712;SDS011;42589;45.536;9.032;2024-03-08T13:52:07;19.85;;;15.43;;
56712;SDS011;42589;45.536;9.032;2024-03-08T13:55:08;18.73;;;14.80;;
56712;SDS011;42589;45.536;9.032;2024-03-08T13:58:09;20.00;;;14.52;;
56712;SDS011;42589;45.536;9.032;2024-03-08T14:01:09;18.67;;;14.60;;
56712;SDS011;42589;45.536;9.032;2024-03-08T14:04:12;19.23;;;15.55;;
56712;SDS011;42589;45.536;9.032;2024-03-08T14:07:12;19.90;;;15.00;;
56712;SDS011;42589;45.536;9.032;2024-03-08T14:10:13;21.75;;;15.35;;
56712;SDS011;42589;45.536;9.032;2024-03-08T14:13:14;17.90;;;13.85;;
56712;SDS011;42589;45.536;9.032;2024-03-08T14:16:16;19.50;;;15.02;;
56712;SDS011;42589;45.536;9.032;2024-03-08T14:19:17;18.17;;;14.93;;
56712;SDS011;42589;45.536;9.032;2024-03-08T14:22:17;19.35;;;14.75;;
56712;SDS011;42589;45.536;9.032;2024-03-08T14:25:18;19.35;;;15.18;;
56712;SDS011;42589;45.536;9.032;2024-03-08T14:28:18;18.13;;;15.18;;
56712;SDS011;42589;45.536;9.032;2024-03-08T14:31:19;20.58;;;15.18;;
56712;SDS011;42589;45.536;9.032;2024-03-08T14:34:20;19.05;;;15.13;;
56712;SDS011;42589;45.536;9.032;2024-03-08T14:37:20;18.92;;;14.95;;
56712;SDS011;42589;45.536;9.032;2024-03-08T14:40:28;17.15;;;14.68;;
56712;SDS011;42589;45.536;9.032;2024-03-08T14:43:51;19.48;;;15.15;;
56712;SDS011;42589;45.536;9.032;2024-03-08T14:46:53;19.83;;;15.30;;
56712;SDS011;42589;45.536;9.032;2024-03-08T14:50:03;23.98;;;15.10;;
56712;SDS011;42589;45.536;9.032;2024-03-08T14:57:03;17.70;;;14.52;;
56712;SDS011;42589;45.536;9.032;2024-03-08T15:00:04;18.27;;;13.98;;
56712;SDS011;42589;45.536;9.032;2024-03-08T15:03:07;15.48;;;13.63;;
56712;SDS011;42589;45.536;9.032;2024-03-08T15:06:08;16.55;;;13.07;;
56712;SDS011;42589;45.536;9.032;2024-03-08T15:09:09;17.23;;;13.55;;
56712;SDS011;42589;45.536;9.032;2024-03-08T15:12:17;17.98;;;15.02;;
56712;SDS011;42589;45.536;9.032;2024-03-08T15:15:18;17.67;;;13.20;;
56712;SDS011;42589;45.536;9.032;2024-03-08T15:18:18;18.23;;;14.10;;
56712;SDS011;42589;45.536;9.032;2024-03-08T15:21:19;18.52;;;14.20;;
56712;SDS011;42589;45.536;9.032;2024-03-08T15:24:20;17.33;;;14.02;;
56712;SDS011;42589;45.536;9.032;2024-03-08T15:27:22;17.45;;;13.93;;
56712;SDS011;42589;45.536;9.032;2024-03-08T15:30:23;21.17;;;14.85;;
56712;SDS011;42589;45.536;9.032;2024-03-08T15:33:26;18.42;;;13.43;;
56712;SDS011;42589;45.536;9.032;2024-03-08T15:36:29;17.23;;;13.98;;
56712;SDS011;42589;45.536;9.032;2024-03-08T15:39:33;20.23;;;13.95;;
56712;SDS011;42589;45.536;9.032;2024-03-08T15:42:34;18.60;;;13.73;;
56712;SDS011;42589;45.536;9.032;2024-03-08T15:45:34;17.13;;;13.48;;
56712;SDS011;42589;45.536;9.032;2024-03-08T15:48:37;19.15;;;14.38;;
56712;SDS011;42589;45.536;9.032;2024-03-08T15:51:38;17.50;;;13.93;;
56712;SDS011;42589;45.536;9.032;2024-03-08T15:54:38;19.05;;;14.32;;
56712;SDS011;42589;45.536;9.032;2024-03-08T15:57:40;20.65;;;14.80;;
56712;SDS011;42589;45.536;9.032;2024-03-08T16:00:40;20.38;;;15.68;;
56712;SDS011;42589;45.536;9.032;2024-03-08T16:03:47;18.35;;;14.80;;
56712;SDS011;42589;45.536;9.032;2024-03-08T16:06:50;20.67;;;15.93;;
56712;SDS011;42589;45.536;9.032;2024-03-08T16:09:51;19.75;;;16.60;;
56712;SDS011;42589;45.536;9.032;2024-03-08T16:12:52;23.60;;;15.65;;
56712;SDS011;42589;45.536;9.032;2024-03-08T16:15:53;17.00;;;14.93;;
56712;SDS011;42589;45.536;9.032;2024-03-08T16:22:02;20.83;;;15.75;;
56712;SDS011;42589;45.536;9.032;2024-03-08T16:25:05;21.05;;;16.08;;
56712;SDS011;42589;45.536;9.032;2024-03-08T16:28:10;21.25;;;15.75;;
56712;SDS011;42589;45.536;9.032;2024-03-08T16:31:13;21.97;;;15.63;;
56712;SDS011;42589;45.536;9.032;2024-03-08T16:34:14;18.38;;;15.40;;
56712;SDS011;42589;45.536;9.032;2024-03-08T16:37:17;20.20;;;15.02;;
56712;SDS011;42589;45.536;9.032;2024-03-08T16:40:18;19.00;;;14.52;;
56712;SDS011;42589;45.536;9.032;2024-03-08T16:43:20;21.70;;;16.60;;
56712;SDS011;42589;45.536;9.032;2024-03-08T16:46:20;18.98;;;15.18;;
56712;SDS011;42589;45.536;9.032;2024-03-08T16:49:21;19.58;;;15.70;;
56712;SDS011;42589;45.536;9.032;2024-03-08T16:52:22;23.35;;;15.95;;
56712;SDS011;42589;45.536;9.032;2024-03-08T16:55:22;21.05;;;15.77;;
56712;SDS011;42589;45.536;9.032;2024-03-08T16:58:23;21.80;;;16.35;;
56712;SDS011;42589;45.536;9.032;2024-03-08T17:01:23;18.52;;;14.68;;
56712;SDS011;42589;45.536;9.032;2024-03-08T17:04:25;18.13;;;15.68;;
56712;SDS011;42589;45.536;9.032;2024-03-08T17:07:26;18.02;;;15.40;;
56712;SDS011;42589;45.536;9.032;2024-03-08T17:10:27;18.92;;;15.75;;
56712;SDS011;42589;45.536;9.032;2024-03-08T17:13:28;23.90;;;17.02;;
56712;SDS011;42589;45.536;9.032;2024-03-08T17:16:29;21.10;;;16.98;;
56712;SDS011;42589;45.536;9.032;2024-03-08T17:19:29;21.38;;;16.08;;
56712;SDS011;42589;45.536;9.032;2024-03-08T17:22:30;21.48;;;17.00;;
56712;SDS011;42589;45.536;9.032;2024-03-08T17:25:31;20.85;;;17.10;;
56712;SDS011;42589;45.536;9.032;2024-03-08T17:28:32;19.98;;;16.88;;
56712;SDS011;42589;45.536;9.032;2024-03-08T17:31:36;20.02;;;16.85;;
56712;SDS011;42589;45.536;9.032;2024-03-08T17:34:36;20.27;;;16.83;;
56712;SDS011;42589;45.536;9.032;2024-03-08T17:37:37;21.15;;;16.95;;
56712;SDS011;42589;45.536;9.032;2024-03-08T17:40:39;23.20;;;17.58;;
56712;SDS011;42589;45.536;9.032;2024-03-08T17:43:46;22.75;;;16.27;;
56712;SDS011;42589;45.536;9.032;2024-03-08T17:46:46;23.10;;;16.95;;
56712;SDS011;42589;45.536;9.032;2024-03-08T17:49:49;21.70;;;16.73;;
56712;SDS011;42589;45.536;9.032;2024-03-08T17:52:51;20.30;;;16.75;;
56712;SDS011;42589;45.536;9.032;2024-03-08T17:55:53;22.65;;;15.85;;
56712;SDS011;42589;45.536;9.032;2024-03-08T17:58:54;21.23;;;16.08;;
56712;SDS011;42589;45.536;9.032;2024-03-08T18:01:56;20.50;;;16.85;;